Camden, NC

10:48 AM EDT on June 03, 2015 (GMT -0400)
Elizabeth City Cgas-Regional | | Change Station
CLOSE
Current Station
Airport
Location: Elizabeth City,
Elevation: 13 ft
Nearby Weather Stations

Elev 13 ft 36.26 °N, 76.18 °W | Updated 54 minutes ago

Rain
Rain
66 °F
Feels Like 66 °F
N
8
Wind Variable Wind from North

Today
High -- | Low -- °F
--% Chance of Precip.
Yesterday
High -- | Low -- °F
Precip. -- in
5:48 AM 8:17 PM
Full, 99% visible
Pressure 30.07 in
Visibility 10.0 miles
Clouds Overcast 500 ft
Dew Point 65 °F
Humidity 96%
Rainfall 0.04 in
Snow Depth Not available.
UV 2 out of 12
Pollen 2.00 out of 12
Air Quality Not available.
Flu Activity No Activity
METAR KECG 031354Z 01007KT 10SM -RA OVC005 19/18 A3007 RMK AO2 SLP183 P0004 T01890183

More Conditions Fewer Conditions

Pressure 30.07 in
Visibility 10.0 miles
Clouds Overcast 500 ft
Dew Point 65 °F
Humidity 96%
Rainfall 0.04 in
Snow Depth Not available.
UV 2 out of 12
Pollen 2.00 out of 12
Air Quality Not available.
Flu Activity No Activity
METAR KECG 031354Z 01007KT 10SM -RA OVC005 19/18 A3007 RMK AO2 SLP183 P0004 T01890183

More Conditions Fewer Conditions

10-Day Weather Forecast

×

Almanac

Astronomy

Jun. 03, 2015 Rise Set
Actual Time
Civil Twilight
Nautical Twilight
Astronomical Twilight
Moon
Length of Visible Light
Length of Day
Tomorrow will be .
, % of the Moon is Illuminated

Today's Extremes

State Highs State Lows

Community

WunderPhotos

Upload Photos

1,826,230 photos uploaded!

WunderBlogs® & News

Nearby

Air Quality

  Air Quality AQ Index Pollutant
Not available.

Snow Depth

Station Depth Elevation

Earthquake Activity

City Distance Mag. Time & Date
Minimum magnitude displayed is 2.5.

Coastal Water Temperatures

Place Temperature

Stations

Nearby Weather Stations

Station Location Temp. Windchill Dew Point Humidity Wind Precip. Elev Updated Type